sensor_id;sensor_type;location;lat;lon;timestamp;temperature;humidity
7117;DHT22;3600;48.568;7.870;2023-02-28T00:01:36;-0.10;97.50
7117;DHT22;3600;48.568;7.870;2023-02-28T00:04:15;-0.10;97.50
7117;DHT22;3600;48.568;7.870;2023-02-28T00:06:55;-0.20;97.90
7117;DHT22;3600;48.568;7.870;2023-02-28T00:09:27;-0.10;98.20
7117;DHT22;3600;48.568;7.870;2023-02-28T00:11:57;-0.10;98.10
7117;DHT22;3600;48.568;7.870;2023-02-28T00:14:30;-0.20;98.10
7117;DHT22;3600;48.568;7.870;2023-02-28T00:17:00;-0.10;98.20
7117;DHT22;3600;48.568;7.870;2023-02-28T00:19:27;-0.20;98.40
7117;DHT22;3600;48.568;7.870;2023-02-28T00:21:57;-0.10;98.40
7117;DHT22;3600;48.568;7.870;2023-02-28T00:24:30;-0.30;98.80
7117;DHT22;3600;48.568;7.870;2023-02-28T00:27:14;-0.20;99.00
7117;DHT22;3600;48.568;7.870;2023-02-28T00:29:47;-0.20;99.00
7117;DHT22;3600;48.568;7.870;2023-02-28T00:32:14;-0.30;99.10
7117;DHT22;3600;48.568;7.870;2023-02-28T00:34:40;-0.20;99.30
7117;DHT22;3600;48.568;7.870;2023-02-28T00:37:11;-0.10;99.40
7117;DHT22;3600;48.568;7.870;2023-02-28T00:39:43;-0.20;99.00
7117;DHT22;3600;48.568;7.870;2023-02-28T00:42:15;-0.20;99.10
7117;DHT22;3600;48.568;7.870;2023-02-28T00:44:42;-0.30;98.90
7117;DHT22;3600;48.568;7.870;2023-02-28T00:47:09;-0.40;99.20
7117;DHT22;3600;48.568;7.870;2023-02-28T00:49:39;-0.40;99.10
7117;DHT22;3600;48.568;7.870;2023-02-28T00:52:06;-0.40;99.40
7117;DHT22;3600;48.568;7.870;2023-02-28T00:54:33;-0.40;99.40
7117;DHT22;3600;48.568;7.870;2023-02-28T00:57:04;-0.20;99.60
7117;DHT22;3600;48.568;7.870;2023-02-28T00:59:31;-0.10;99.00
7117;DHT22;3600;48.568;7.870;2023-02-28T01:02:03;-0.30;99.40
7117;DHT22;3600;48.568;7.870;2023-02-28T01:04:31;-0.20;99.80
7117;DHT22;3600;48.568;7.870;2023-02-28T01:07:17;-0.20;99.40
7117;DHT22;3600;48.568;7.870;2023-02-28T01:10:14;-0.20;99.40
7117;DHT22;3600;48.568;7.870;2023-02-28T01:12:43;-0.40;99.80
7117;DHT22;3600;48.568;7.870;2023-02-28T01:15:13;-0.50;99.80
7117;DHT22;3600;48.568;7.870;2023-02-28T01:17:41;-0.50;99.90
7117;DHT22;3600;48.568;7.870;2023-02-28T01:20:13;-0.50;99.90
7117;DHT22;3600;48.568;7.870;2023-02-28T01:22:40;-0.50;99.90
7117;DHT22;3600;48.568;7.870;2023-02-28T01:25:19;-0.30;99.90
7117;DHT22;3600;48.568;7.870;2023-02-28T01:27:53;-0.10;99.90
7117;DHT22;3600;48.568;7.870;2023-02-28T01:30:33;-0.30;99.90
7117;DHT22;3600;48.568;7.870;2023-02-28T01:33:01;-0.20;99.90
7117;DHT22;3600;48.568;7.870;2023-02-28T01:35:37;-0.20;99.90
7117;DHT22;3600;48.568;7.870;2023-02-28T01:38:06;-0.40;99.90
7117;DHT22;3600;48.568;7.870;2023-02-28T01:40:50;-0.30;99.90
7117;DHT22;3600;48.568;7.870;2023-02-28T01:43:28;-0.20;99.90
7117;DHT22;3600;48.568;7.870;2023-02-28T01:45:58;-0.10;99.90
7117;DHT22;3600;48.568;7.870;2023-02-28T01:48:29;0.00;99.90
7117;DHT22;3600;48.568;7.870;2023-02-28T01:51:11;-0.10;99.90
7117;DHT22;3600;48.568;7.870;2023-02-28T01:53:43;-0.20;99.90
7117;DHT22;3600;48.568;7.870;2023-02-28T01:56:16;-0.30;99.90
7117;DHT22;3600;48.568;7.870;2023-02-28T01:58:48;-0.10;99.90
7117;DHT22;3600;48.568;7.870;2023-02-28T02:01:16;-0.20;99.90
7117;DHT22;3600;48.568;7.870;2023-02-28T02:04:01;-0.10;99.90
7117;DHT22;3600;48.568;7.870;2023-02-28T02:06:43;0.00;99.90
7117;DHT22;3600;48.568;7.870;2023-02-28T02:09:17;-0.20;99.90
7117;DHT22;3600;48.568;7.870;2023-02-28T02:11:56;-0.20;99.90
7117;DHT22;3600;48.568;7.870;2023-02-28T02:14:58;-0.20;99.90
7117;DHT22;3600;48.568;7.870;2023-02-28T02:17:44;-0.20;99.90
7117;DHT22;3600;48.568;7.870;2023-02-28T02:23:18;-0.20;99.90
7117;DHT22;3600;48.568;7.870;2023-02-28T02:25:52;-0.20;99.90
7117;DHT22;3600;48.568;7.870;2023-02-28T02:28:55;-0.20;99.90
7117;DHT22;3600;48.568;7.870;2023-02-28T02:45:40;-0.20;99.90
7117;DHT22;3600;48.568;7.870;2023-02-28T02:48:08;-0.20;99.90
7117;DHT22;3600;48.568;7.870;2023-02-28T02:50:43;-0.30;99.90
7117;DHT22;3600;48.568;7.870;2023-02-28T02:53:24;-0.40;99.90
7117;DHT22;3600;48.568;7.870;2023-02-28T02:55:56;-0.20;99.90
7117;DHT22;3600;48.568;7.870;2023-02-28T02:58:29;-0.30;99.90
7117;DHT22;3600;48.568;7.870;2023-02-28T03:00:59;-0.40;99.90
7117;DHT22;3600;48.568;7.870;2023-02-28T03:03:34;-0.40;99.90
7117;DHT22;3600;48.568;7.870;2023-02-28T03:06:06;-0.50;99.90
7117;DHT22;3600;48.568;7.870;2023-02-28T03:08:36;-0.50;99.90
7117;DHT22;3600;48.568;7.870;2023-02-28T03:11:13;-0.60;99.90
7117;DHT22;3600;48.568;7.870;2023-02-28T03:14:02;-0.50;99.90
7117;DHT22;3600;48.568;7.870;2023-02-28T03:16:35;-0.50;99.90
7117;DHT22;3600;48.568;7.870;2023-02-28T03:22:01;-0.60;99.90
7117;DHT22;3600;48.568;7.870;2023-02-28T03:32:40;-0.50;99.90
7117;DHT22;3600;48.568;7.870;2023-02-28T03:38:23;-0.50;99.90
7117;DHT22;3600;48.568;7.870;2023-02-28T03:41:17;-0.60;99.90
7117;DHT22;3600;48.568;7.870;2023-02-28T03:43:51;-0.60;99.90
7117;DHT22;3600;48.568;7.870;2023-02-28T03:46:32;-0.60;99.90
7117;DHT22;3600;48.568;7.870;2023-02-28T03:49:22;-0.50;99.90
7117;DHT22;3600;48.568;7.870;2023-02-28T03:52:06;-0.50;99.90
7117;DHT22;3600;48.568;7.870;2023-02-28T03:54:37;-0.50;99.90
7117;DHT22;3600;48.568;7.870;2023-02-28T04:02:48;-0.70;99.90
7117;DHT22;3600;48.568;7.870;2023-02-28T04:05:22;-0.60;99.90
7117;DHT22;3600;48.568;7.870;2023-02-28T04:07:49;-0.80;99.90
7117;DHT22;3600;48.568;7.870;2023-02-28T04:10:23;-0.60;99.90
7117;DHT22;3600;48.568;7.870;2023-02-28T04:12:53;-0.70;99.90
7117;DHT22;3600;48.568;7.870;2023-02-28T04:15:20;-0.80;99.90
7117;DHT22;3600;48.568;7.870;2023-02-28T04:17:49;-0.70;99.90
7117;DHT22;3600;48.568;7.870;2023-02-28T04:20:18;-0.60;99.90
7117;DHT22;3600;48.568;7.870;2023-02-28T04:22:48;-0.70;99.90
7117;DHT22;3600;48.568;7.870;2023-02-28T04:25:15;-0.90;99.90
7117;DHT22;3600;48.568;7.870;2023-02-28T04:27:42;-0.90;99.90
7117;DHT22;3600;48.568;7.870;2023-02-28T04:30:13;-1.00;99.90
7117;DHT22;3600;48.568;7.870;2023-02-28T04:32:40;-0.90;99.90
7117;DHT22;3600;48.568;7.870;2023-02-28T04:35:10;-0.90;99.90
7117;DHT22;3600;48.568;7.870;2023-02-28T04:37:38;-0.80;99.90
7117;DHT22;3600;48.568;7.870;2023-02-28T04:40:05;-0.90;99.90
7117;DHT22;3600;48.568;7.870;2023-02-28T04:42:38;-0.90;99.90
7117;DHT22;3600;48.568;7.870;2023-02-28T04:45:06;-0.90;99.90
7117;DHT22;3600;48.568;7.870;2023-02-28T04:47:40;-0.90;99.90
7117;DHT22;3600;48.568;7.870;2023-02-28T04:50:08;-0.90;99.90
7117;DHT22;3600;48.568;7.870;2023-02-28T04:52:35;-0.80;99.90
7117;DHT22;3600;48.568;7.870;2023-02-28T04:55:01;-1.00;99.90
7117;DHT22;3600;48.568;7.870;2023-02-28T04:57:28;-0.90;99.90
7117;DHT22;3600;48.568;7.870;2023-02-28T04:59:56;-1.10;99.90
7117;DHT22;3600;48.568;7.870;2023-02-28T05:02:23;-1.00;99.90
7117;DHT22;3600;48.568;7.870;2023-02-28T05:04:53;-1.10;99.90
7117;DHT22;3600;48.568;7.870;2023-02-28T05:07:20;-1.10;99.90
7117;DHT22;3600;48.568;7.870;2023-02-28T05:20:29;-1.10;99.90
7117;DHT22;3600;48.568;7.870;2023-02-28T05:22:57;-1.10;99.90
7117;DHT22;3600;48.568;7.870;2023-02-28T05:25:24;-1.10;99.90
7117;DHT22;3600;48.568;7.870;2023-02-28T05:27:51;-1.00;99.90
7117;DHT22;3600;48.568;7.870;2023-02-28T05:30:18;-1.10;99.90
7117;DHT22;3600;48.568;7.870;2023-02-28T05:32:50;-1.10;99.90
7117;DHT22;3600;48.568;7.870;2023-02-28T05:35:17;-0.80;99.90
7117;DHT22;3600;48.568;7.870;2023-02-28T05:37:44;-0.80;99.90
7117;DHT22;3600;48.568;7.870;2023-02-28T05:40:11;-0.80;99.90
7117;DHT22;3600;48.568;7.870;2023-02-28T05:42:38;-0.70;99.90
7117;DHT22;3600;48.568;7.870;2023-02-28T05:45:05;-0.80;99.90
7117;DHT22;3600;48.568;7.870;2023-02-28T05:47:33;-0.80;99.90
7117;DHT22;3600;48.568;7.870;2023-02-28T05:50:00;-1.10;99.90
7117;DHT22;3600;48.568;7.870;2023-02-28T05:52:28;-1.00;99.90
7117;DHT22;3600;48.568;7.870;2023-02-28T05:54:56;-1.00;99.90
7117;DHT22;3600;48.568;7.870;2023-02-28T05:57:23;-1.00;99.90
7117;DHT22;3600;48.568;7.870;2023-02-28T05:59:50;-0.80;99.90
7117;DHT22;3600;48.568;7.870;2023-02-28T06:02:17;-0.70;99.90
7117;DHT22;3600;48.568;7.870;2023-02-28T06:04:44;-0.70;99.90
7117;DHT22;3600;48.568;7.870;2023-02-28T06:07:11;-0.80;99.90
7117;DHT22;3600;48.568;7.870;2023-02-28T06:09:38;-0.50;99.90
7117;DHT22;3600;48.568;7.870;2023-02-28T06:12:06;-0.70;99.90
7117;DHT22;3600;48.568;7.870;2023-02-28T06:14:34;-0.50;99.90
7117;DHT22;3600;48.568;7.870;2023-02-28T06:17:02;-0.60;99.90
7117;DHT22;3600;48.568;7.870;2023-02-28T06:19:28;-0.70;99.90
7117;DHT22;3600;48.568;7.870;2023-02-28T06:21:57;-0.80;99.90
7117;DHT22;3600;48.568;7.870;2023-02-28T06:24:25;-0.60;99.90
7117;DHT22;3600;48.568;7.870;2023-02-28T06:26:54;-0.60;99.90
7117;DHT22;3600;48.568;7.870;2023-02-28T06:29:21;-0.70;99.90
7117;DHT22;3600;48.568;7.870;2023-02-28T06:31:48;-0.70;99.90
7117;DHT22;3600;48.568;7.870;2023-02-28T06:34:15;-0.80;99.90
7117;DHT22;3600;48.568;7.870;2023-02-28T06:36:42;-0.90;99.90
7117;DHT22;3600;48.568;7.870;2023-02-28T06:39:09;-0.60;99.90
7117;DHT22;3600;48.568;7.870;2023-02-28T06:41:36;-0.60;99.90
7117;DHT22;3600;48.568;7.870;2023-02-28T06:44:20;-0.80;99.90
7117;DHT22;3600;48.568;7.870;2023-02-28T06:46:47;-0.80;99.90
7117;DHT22;3600;48.568;7.870;2023-02-28T06:49:14;-0.70;99.90
7117;DHT22;3600;48.568;7.870;2023-02-28T06:51:43;-0.80;99.90
7117;DHT22;3600;48.568;7.870;2023-02-28T06:54:13;-0.90;99.90
7117;DHT22;3600;48.568;7.870;2023-02-28T06:56:40;-0.70;99.90
7117;DHT22;3600;48.568;7.870;2023-02-28T06:59:07;-0.70;99.90
7117;DHT22;3600;48.568;7.870;2023-02-28T07:01:34;-0.70;99.90
7117;DHT22;3600;48.568;7.870;2023-02-28T07:04:01;-0.80;99.90
7117;DHT22;3600;48.568;7.870;2023-02-28T07:06:28;-0.50;99.90
7117;DHT22;3600;48.568;7.870;2023-02-28T07:08:55;-0.40;99.90
7117;DHT22;3600;48.568;7.870;2023-02-28T07:11:24;-0.40;99.90
7117;DHT22;3600;48.568;7.870;2023-02-28T07:13:55;-0.60;99.90
7117;DHT22;3600;48.568;7.870;2023-02-28T07:16:23;-0.70;99.90
7117;DHT22;3600;48.568;7.870;2023-02-28T07:18:54;-0.70;99.90
7117;DHT22;3600;48.568;7.870;2023-02-28T07:21:21;-0.70;99.90
7117;DHT22;3600;48.568;7.870;2023-02-28T07:23:48;-0.50;99.90
7117;DHT22;3600;48.568;7.870;2023-02-28T07:26:16;-0.60;99.90
7117;DHT22;3600;48.568;7.870;2023-02-28T07:28:46;-0.70;99.90
7117;DHT22;3600;48.568;7.870;2023-02-28T07:31:14;-0.70;99.90
7117;DHT22;3600;48.568;7.870;2023-02-28T07:33:41;-0.60;99.90
7117;DHT22;3600;48.568;7.870;2023-02-28T07:36:11;-0.60;99.90
7117;DHT22;3600;48.568;7.870;2023-02-28T07:38:43;-0.50;99.90
7117;DHT22;3600;48.568;7.870;2023-02-28T07:41:15;-0.50;99.90
7117;DHT22;3600;48.568;7.870;2023-02-28T07:43:42;-0.40;99.90
7117;DHT22;3600;48.568;7.870;2023-02-28T07:46:13;-0.40;99.90
7117;DHT22;3600;48.568;7.870;2023-02-28T07:48:42;-0.50;99.90
7117;DHT22;3600;48.568;7.870;2023-02-28T07:51:08;-0.50;99.90
7117;DHT22;3600;48.568;7.870;2023-02-28T07:53:36;-0.40;99.90
7117;DHT22;3600;48.568;7.870;2023-02-28T07:56:03;-0.50;99.90
7117;DHT22;3600;48.568;7.870;2023-02-28T07:58:30;-0.30;99.90
7117;DHT22;3600;48.568;7.870;2023-02-28T08:01:08;-0.40;99.90
7117;DHT22;3600;48.568;7.870;2023-02-28T08:03:35;-0.30;99.90
7117;DHT22;3600;48.568;7.870;2023-02-28T08:06:03;-0.30;99.90
7117;DHT22;3600;48.568;7.870;2023-02-28T08:08:30;-0.10;99.90
7117;DHT22;3600;48.568;7.870;2023-02-28T08:11:02;-0.10;99.90
7117;DHT22;3600;48.568;7.870;2023-02-28T08:13:29;-0.30;99.90
7117;DHT22;3600;48.568;7.870;2023-02-28T08:15:57;-0.20;99.90
7117;DHT22;3600;48.568;7.870;2023-02-28T08:18:24;-0.10;99.90
7117;DHT22;3600;48.568;7.870;2023-02-28T08:20:50;-0.30;99.90
7117;DHT22;3600;48.568;7.870;2023-02-28T08:23:18;-0.20;99.90
7117;DHT22;3600;48.568;7.870;2023-02-28T08:25:44;-0.30;99.90
7117;DHT22;3600;48.568;7.870;2023-02-28T08:28:11;-0.10;99.90
7117;DHT22;3600;48.568;7.870;2023-02-28T08:30:38;0.00;99.90
7117;DHT22;3600;48.568;7.870;2023-02-28T08:33:07;0.10;99.90
7117;DHT22;3600;48.568;7.870;2023-02-28T08:35:36;0.00;99.90
7117;DHT22;3600;48.568;7.870;2023-02-28T08:38:03;-0.10;99.90
7117;DHT22;3600;48.568;7.870;2023-02-28T08:40:30;0.00;99.90
7117;DHT22;3600;48.568;7.870;2023-02-28T08:42:57;-0.10;99.90
7117;DHT22;3600;48.568;7.870;2023-02-28T08:45:24;0.10;99.90
7117;DHT22;3600;48.568;7.870;2023-02-28T08:47:51;0.10;99.90
7117;DHT22;3600;48.568;7.870;2023-02-28T08:50:18;0.10;99.90
7117;DHT22;3600;48.568;7.870;2023-02-28T08:52:45;0.10;99.90
7117;DHT22;3600;48.568;7.870;2023-02-28T08:55:12;0.10;99.90
7117;DHT22;3600;48.568;7.870;2023-02-28T08:57:39;0.10;99.90
7117;DHT22;3600;48.568;7.870;2023-02-28T09:00:06;0.20;99.90
7117;DHT22;3600;48.568;7.870;2023-02-28T09:02:34;0.20;99.90
7117;DHT22;3600;48.568;7.870;2023-02-28T09:05:00;0.10;99.90
7117;DHT22;3600;48.568;7.870;2023-02-28T09:07:27;0.00;99.90
7117;DHT22;3600;48.568;7.870;2023-02-28T09:09:54;0.20;99.90
7117;DHT22;3600;48.568;7.870;2023-02-28T09:12:25;0.10;99.90
7117;DHT22;3600;48.568;7.870;2023-02-28T09:14:53;0.30;99.90
7117;DHT22;3600;48.568;7.870;2023-02-28T09:17:20;0.20;99.90
7117;DHT22;3600;48.568;7.870;2023-02-28T09:19:48;0.20;99.90
7117;DHT22;3600;48.568;7.870;2023-02-28T09:22:15;0.20;99.90
7117;DHT22;3600;48.568;7.870;2023-02-28T09:24:42;0.40;99.90
7117;DHT22;3600;48.568;7.870;2023-02-28T09:27:11;0.30;99.90
7117;DHT22;3600;48.568;7.870;2023-02-28T09:29:38;0.20;99.90
7117;DHT22;3600;48.568;7.870;2023-02-28T09:32:04;0.30;99.90
7117;DHT22;3600;48.568;7.870;2023-02-28T09:34:32;0.30;99.90
7117;DHT22;3600;48.568;7.870;2023-02-28T09:36:59;0.30;99.90
7117;DHT22;3600;48.568;7.870;2023-02-28T09:39:26;0.40;99.90
7117;DHT22;3600;48.568;7.870;2023-02-28T09:41:54;0.50;99.90
7117;DHT22;3600;48.568;7.870;2023-02-28T09:44:41;0.50;99.90
7117;DHT22;3600;48.568;7.870;2023-02-28T09:47:30;0.40;99.90
7117;DHT22;3600;48.568;7.870;2023-02-28T09:50:22;0.50;99.90
7117;DHT22;3600;48.568;7.870;2023-02-28T09:52:54;0.40;99.90
7117;DHT22;3600;48.568;7.870;2023-02-28T09:55:35;0.50;99.90
7117;DHT22;3600;48.568;7.870;2023-02-28T09:58:41;0.60;99.90
7117;DHT22;3600;48.568;7.870;2023-02-28T10:03:58;0.60;99.90
7117;DHT22;3600;48.568;7.870;2023-02-28T10:06:30;0.60;99.90
7117;DHT22;3600;48.568;7.870;2023-02-28T10:09:24;0.60;99.90
7117;DHT22;3600;48.568;7.870;2023-02-28T10:11:53;0.60;99.90
7117;DHT22;3600;48.568;7.870;2023-02-28T10:14:28;0.60;99.90
7117;DHT22;3600;48.568;7.870;2023-02-28T10:17:04;0.60;99.90
7117;DHT22;3600;48.568;7.870;2023-02-28T10:22:20;0.60;99.90
7117;DHT22;3600;48.568;7.870;2023-02-28T10:24:53;0.70;99.90
7117;DHT22;3600;48.568;7.870;2023-02-28T10:27:31;0.70;99.90
7117;DHT22;3600;48.568;7.870;2023-02-28T10:30:00;0.70;99.90
7117;DHT22;3600;48.568;7.870;2023-02-28T10:32:28;0.70;99.90
7117;DHT22;3600;48.568;7.870;2023-02-28T10:37:33;0.80;99.90
7117;DHT22;3600;48.568;7.870;2023-02-28T10:40:07;0.70;99.90
7117;DHT22;3600;48.568;7.870;2023-02-28T10:45:32;0.80;99.90
7117;DHT22;3600;48.568;7.870;2023-02-28T11:06:44;1.10;99.90
7117;DHT22;3600;48.568;7.870;2023-02-28T11:09:27;1.00;99.90
7117;DHT22;3600;48.568;7.870;2023-02-28T11:11:55;1.10;99.90
7117;DHT22;3600;48.568;7.870;2023-02-28T11:14:26;1.10;99.90
7117;DHT22;3600;48.568;7.870;2023-02-28T11:16:54;1.20;99.90
7117;DHT22;3600;48.568;7.870;2023-02-28T11:19:26;1.30;99.90
7117;DHT22;3600;48.568;7.870;2023-02-28T11:22:00;1.30;99.90
7117;DHT22;3600;48.568;7.870;2023-02-28T11:26:56;1.40;99.90
7117;DHT22;3600;48.568;7.870;2023-02-28T11:29:26;1.30;99.90
7117;DHT22;3600;48.568;7.870;2023-02-28T11:34:38;1.40;99.90
7117;DHT22;3600;48.568;7.870;2023-02-28T11:37:14;1.50;99.90
7117;DHT22;3600;48.568;7.870;2023-02-28T11:39:43;1.50;99.90
7117;DHT22;3600;48.568;7.870;2023-02-28T11:50:45;1.60;99.90
7117;DHT22;3600;48.568;7.870;2023-02-28T11:55:56;1.70;99.90
7117;DHT22;3600;48.568;7.870;2023-02-28T12:01:33;1.80;99.90
7117;DHT22;3600;48.568;7.870;2023-02-28T12:21:02;2.20;99.90
7117;DHT22;3600;48.568;7.870;2023-02-28T12:26:32;2.30;99.90
7117;DHT22;3600;48.568;7.870;2023-02-28T12:29:23;2.50;99.90
7117;DHT22;3600;48.568;7.870;2023-02-28T12:32:14;2.50;99.90
7117;DHT22;3600;48.568;7.870;2023-02-28T12:34:52;2.50;99.90
7117;DHT22;3600;48.568;7.870;2023-02-28T12:37:30;2.60;99.90
7117;DHT22;3600;48.568;7.870;2023-02-28T12:40:15;2.50;99.90
7117;DHT22;3600;48.568;7.870;2023-02-28T12:42:57;2.50;99.80
7117;DHT22;3600;48.568;7.870;2023-02-28T12:46:14;2.50;99.80
7117;DHT22;3600;48.568;7.870;2023-02-28T12:48:21;2.50;99.90
7117;DHT22;3600;48.568;7.870;2023-02-28T12:50:51;2.60;99.60
7117;DHT22;3600;48.568;7.870;2023-02-28T12:56:07;2.70;99.90
7117;DHT22;3600;48.568;7.870;2023-02-28T12:58:39;2.90;99.80
7117;DHT22;3600;48.568;7.870;2023-02-28T13:09:59;3.00;99.70
7117;DHT22;3600;48.568;7.870;2023-02-28T13:12:27;3.10;99.30
7117;DHT22;3600;48.568;7.870;2023-02-28T13:15:24;3.20;99.30
7117;DHT22;3600;48.568;7.870;2023-02-28T13:17:54;3.20;99.10
7117;DHT22;3600;48.568;7.870;2023-02-28T13:20:24;3.00;99.30
7117;DHT22;3600;48.568;7.870;2023-02-28T13:22:53;3.10;99.20
7117;DHT22;3600;48.568;7.870;2023-02-28T13:28:01;3.40;99.00
7117;DHT22;3600;48.568;7.870;2023-02-28T13:33:33;3.60;99.40
7117;DHT22;3600;48.568;7.870;2023-02-28T13:38:39;3.50;98.30
7117;DHT22;3600;48.568;7.870;2023-02-28T13:49:32;3.40;99.10
7117;DHT22;3600;48.568;7.870;2023-02-28T14:00:28;4.00;98.90
7117;DHT22;3600;48.568;7.870;2023-02-28T14:09:01;4.50;97.70
7117;DHT22;3600;48.568;7.870;2023-02-28T14:11:33;4.40;97.10
7117;DHT22;3600;48.568;7.870;2023-02-28T14:14:02;4.50;97.60
7117;DHT22;3600;48.568;7.870;2023-02-28T14:16:45;4.70;98.30
7117;DHT22;3600;48.568;7.870;2023-02-28T14:19:25;4.60;96.70
7117;DHT22;3600;48.568;7.870;2023-02-28T14:25:05;4.60;98.50
7117;DHT22;3600;48.568;7.870;2023-02-28T14:30:29;4.70;97.90
7117;DHT22;3600;48.568;7.870;2023-02-28T14:33:23;5.00;97.70
7117;DHT22;3600;48.568;7.870;2023-02-28T14:36:18;5.00;96.00
7117;DHT22;3600;48.568;7.870;2023-02-28T14:38:51;4.80;96.30
7117;DHT22;3600;48.568;7.870;2023-02-28T14:41:28;5.00;96.50
7117;DHT22;3600;48.568;7.870;2023-02-28T14:44:00;5.00;97.50
7117;DHT22;3600;48.568;7.870;2023-02-28T14:46:37;5.10;96.90
7117;DHT22;3600;48.568;7.870;2023-02-28T14:49:16;5.10;96.50
7117;DHT22;3600;48.568;7.870;2023-02-28T14:51:43;5.30;97.00
7117;DHT22;3600;48.568;7.870;2023-02-28T14:54:15;5.30;95.80
7117;DHT22;3600;48.568;7.870;2023-02-28T14:56:42;5.30;95.90
7117;DHT22;3600;48.568;7.870;2023-02-28T14:59:28;5.50;96.50
7117;DHT22;3600;48.568;7.870;2023-02-28T15:02:21;5.20;96.30
7117;DHT22;3600;48.568;7.870;2023-02-28T15:04:56;5.40;96.40
7117;DHT22;3600;48.568;7.870;2023-02-28T15:07:25;5.30;96.50
7117;DHT22;3600;48.568;7.870;2023-02-28T15:12:39;5.20;96.70
7117;DHT22;3600;48.568;7.870;2023-02-28T15:15:14;5.20;96.10
7117;DHT22;3600;48.568;7.870;2023-02-28T15:17:53;5.30;96.30
7117;DHT22;3600;48.568;7.870;2023-02-28T15:20:21;5.30;96.70
7117;DHT22;3600;48.568;7.870;2023-02-28T15:22:51;5.60;96.30
7117;DHT22;3600;48.568;7.870;2023-02-28T15:25:20;5.60;96.80
7117;DHT22;3600;48.568;7.870;2023-02-28T15:27:53;5.50;96.30
7117;DHT22;3600;48.568;7.870;2023-02-28T15:30:26;5.40;96.60
7117;DHT22;3600;48.568;7.870;2023-02-28T15:33:28;5.50;96.60
7117;DHT22;3600;48.568;7.870;2023-02-28T15:36:14;5.40;97.10
7117;DHT22;3600;48.568;7.870;2023-02-28T15:38:42;5.50;97.00
7117;DHT22;3600;48.568;7.870;2023-02-28T15:41:24;5.50;96.30
7117;DHT22;3600;48.568;7.870;2023-02-28T15:44:14;5.30;96.90
7117;DHT22;3600;48.568;7.870;2023-02-28T15:47:14;5.40;97.10
7117;DHT22;3600;48.568;7.870;2023-02-28T15:49:49;5.50;97.30
7117;DHT22;3600;48.568;7.870;2023-02-28T15:52:19;5.40;96.80
7117;DHT22;3600;48.568;7.870;2023-02-28T15:54:48;5.50;96.90
7117;DHT22;3600;48.568;7.870;2023-02-28T15:57:24;5.30;97.00
7117;DHT22;3600;48.568;7.870;2023-02-28T15:59:55;5.50;97.40
7117;DHT22;3600;48.568;7.870;2023-02-28T16:02:34;5.50;96.90
7117;DHT22;3600;48.568;7.870;2023-02-28T16:07:37;5.50;97.30
7117;DHT22;3600;48.568;7.870;2023-02-28T16:10:05;5.60;97.20
7117;DHT22;3600;48.568;7.870;2023-02-28T16:12:34;5.40;97.50
7117;DHT22;3600;48.568;7.870;2023-02-28T16:15:06;5.30;97.40
7117;DHT22;3600;48.568;7.870;2023-02-28T16:17:35;5.30;96.90
7117;DHT22;3600;48.568;7.870;2023-02-28T16:20:29;5.20;97.30
7117;DHT22;3600;48.568;7.870;2023-02-28T16:22:56;5.00;97.50
7117;DHT22;3600;48.568;7.870;2023-02-28T16:25:44;4.90;97.80
7117;DHT22;3600;48.568;7.870;2023-02-28T16:28:29;4.90;97.90
7117;DHT22;3600;48.568;7.870;2023-02-28T16:30:59;4.80;98.20
7117;DHT22;3600;48.568;7.870;2023-02-28T16:33:26;4.80;98.20
7117;DHT22;3600;48.568;7.870;2023-02-28T16:35:53;4.70;98.10
7117;DHT22;3600;48.568;7.870;2023-02-28T16:38:19;4.60;98.20
7117;DHT22;3600;48.568;7.870;2023-02-28T16:40:49;4.60;98.20
7117;DHT22;3600;48.568;7.870;2023-02-28T16:43:19;4.50;98.30
7117;DHT22;3600;48.568;7.870;2023-02-28T16:45:56;4.40;98.60
7117;DHT22;3600;48.568;7.870;2023-02-28T16:48:27;4.40;98.40
7117;DHT22;3600;48.568;7.870;2023-02-28T16:50:54;4.30;98.80
7117;DHT22;3600;48.568;7.870;2023-02-28T16:53:21;4.30;98.60
7117;DHT22;3600;48.568;7.870;2023-02-28T16:55:48;4.10;99.00
7117;DHT22;3600;48.568;7.870;2023-02-28T16:58:16;4.10;99.00
7117;DHT22;3600;48.568;7.870;2023-02-28T17:00:43;4.10;98.80
7117;DHT22;3600;48.568;7.870;2023-02-28T17:03:25;4.10;98.90
7117;DHT22;3600;48.568;7.870;2023-02-28T17:05:59;3.90;99.10
7117;DHT22;3600;48.568;7.870;2023-02-28T17:08:26;3.70;99.10
7117;DHT22;3600;48.568;7.870;2023-02-28T17:10:55;3.80;99.20
7117;DHT22;3600;48.568;7.870;2023-02-28T17:13:22;3.70;99.20
7117;DHT22;3600;48.568;7.870;2023-02-28T17:15:49;3.70;99.20
7117;DHT22;3600;48.568;7.870;2023-02-28T17:18:18;3.60;99.30
7117;DHT22;3600;48.568;7.870;2023-02-28T17:20:46;3.60;99.30
7117;DHT22;3600;48.568;7.870;2023-02-28T17:23:12;3.50;99.40
7117;DHT22;3600;48.568;7.870;2023-02-28T17:25:39;3.50;99.70
7117;DHT22;3600;48.568;7.870;2023-02-28T17:28:06;3.50;99.40
7117;DHT22;3600;48.568;7.870;2023-02-28T17:30:33;3.40;99.70
7117;DHT22;3600;48.568;7.870;2023-02-28T17:33:00;3.50;99.80
7117;DHT22;3600;48.568;7.870;2023-02-28T17:35:27;3.40;99.60
7117;DHT22;3600;48.568;7.870;2023-02-28T17:37:54;3.30;99.90
7117;DHT22;3600;48.568;7.870;2023-02-28T17:40:23;3.30;99.70
7117;DHT22;3600;48.568;7.870;2023-02-28T17:42:50;3.30;99.90
7117;DHT22;3600;48.568;7.870;2023-02-28T17:45:18;3.20;99.80
7117;DHT22;3600;48.568;7.870;2023-02-28T17:47:49;3.20;99.90
7117;DHT22;3600;48.568;7.870;2023-02-28T17:50:19;3.30;99.90
7117;DHT22;3600;48.568;7.870;2023-02-28T17:52:48;3.20;99.80
7117;DHT22;3600;48.568;7.870;2023-02-28T17:55:16;3.10;99.90
7117;DHT22;3600;48.568;7.870;2023-02-28T17:57:46;3.00;99.90
7117;DHT22;3600;48.568;7.870;2023-02-28T18:00:14;3.00;99.90
7117;DHT22;3600;48.568;7.870;2023-02-28T18:02:42;3.00;99.90
7117;DHT22;3600;48.568;7.870;2023-02-28T18:05:11;3.00;99.90
7117;DHT22;3600;48.568;7.870;2023-02-28T18:07:38;2.90;99.90
7117;DHT22;3600;48.568;7.870;2023-02-28T18:10:07;3.00;99.90
7117;DHT22;3600;48.568;7.870;2023-02-28T18:12:38;2.90;99.90
7117;DHT22;3600;48.568;7.870;2023-02-28T18:15:05;2.90;99.90
7117;DHT22;3600;48.568;7.870;2023-02-28T18:17:32;2.90;99.70
7117;DHT22;3600;48.568;7.870;2023-02-28T18:19:59;2.80;99.90
7117;DHT22;3600;48.568;7.870;2023-02-28T18:22:26;2.80;99.80
7117;DHT22;3600;48.568;7.870;2023-02-28T18:24:52;2.80;99.90
7117;DHT22;3600;48.568;7.870;2023-02-28T18:27:19;2.80;99.90
7117;DHT22;3600;48.568;7.870;2023-02-28T18:29:46;2.80;99.90
7117;DHT22;3600;48.568;7.870;2023-02-28T18:32:15;2.70;99.90
7117;DHT22;3600;48.568;7.870;2023-02-28T18:34:41;2.80;99.90
7117;DHT22;3600;48.568;7.870;2023-02-28T18:37:08;2.70;99.80
7117;DHT22;3600;48.568;7.870;2023-02-28T18:39:37;2.80;99.70
7117;DHT22;3600;48.568;7.870;2023-02-28T18:42:04;2.70;99.80
7117;DHT22;3600;48.568;7.870;2023-02-28T18:44:30;2.70;99.90
7117;DHT22;3600;48.568;7.870;2023-02-28T18:46:57;2.70;99.90
7117;DHT22;3600;48.568;7.870;2023-02-28T18:49:24;2.70;99.90
7117;DHT22;3600;48.568;7.870;2023-02-28T18:51:50;2.70;99.90
7117;DHT22;3600;48.568;7.870;2023-02-28T18:54:18;2.60;99.90
7117;DHT22;3600;48.568;7.870;2023-02-28T18:56:45;2.50;99.90
7117;DHT22;3600;48.568;7.870;2023-02-28T18:59:12;2.50;99.90
7117;DHT22;3600;48.568;7.870;2023-02-28T19:01:38;2.50;99.90
7117;DHT22;3600;48.568;7.870;2023-02-28T19:04:06;2.40;99.90
7117;DHT22;3600;48.568;7.870;2023-02-28T19:06:33;2.40;99.90
7117;DHT22;3600;48.568;7.870;2023-02-28T19:09:01;2.40;99.90
7117;DHT22;3600;48.568;7.870;2023-02-28T19:11:30;2.40;99.90
7117;DHT22;3600;48.568;7.870;2023-02-28T19:13:57;2.40;99.90
7117;DHT22;3600;48.568;7.870;2023-02-28T19:16:24;2.50;99.90
7117;DHT22;3600;48.568;7.870;2023-02-28T19:18:50;2.40;99.90
7117;DHT22;3600;48.568;7.870;2023-02-28T19:21:19;2.30;99.90
7117;DHT22;3600;48.568;7.870;2023-02-28T19:23:46;2.40;99.90
7117;DHT22;3600;48.568;7.870;2023-02-28T19:26:16;2.30;99.90
7117;DHT22;3600;48.568;7.870;2023-02-28T19:28:43;2.30;99.90